Terminal Aerodrome Forecast
Issued by NWS Denver/Boulder, CO

Home | Current Version | Previous Version | Text Only | Print | Product List | Glossary On
Versions: 1 2 3 4 5 6 7 8 9 10 11 12 13 14 15 16 17 18 19 20 21 22 23 24 25 26 27 28 29 30 31 32 33 34 35 36 37 38 39 40 41 42 43 44 45 46 47 48 49 50
000
FTUS45 KBOU 021455 AAA
TAFDEN
TAF AMD
KDEN 021455Z 0215/0318 25008KT P6SM FEW120 BKN200
     FM021800 33008KT P6SM SCT080 BKN150
     FM022200 29007KT P6SM VCTS SCT070CB BKN120
     FM030200 24007KT P6SM SCT110 BKN200
     FM030500 20008KT P6SM FEW200
     FM030900 22011KT P6SM BKN150
     FM031600 08007KT P6SM SCT150 BKN200=

USA.gov is the U.S. government's official web portal to all federal, state and local government web resources and services.